sensor_id;sensor_type;location;lat;lon;timestamp;P1;durP1;ratioP1;P2;durP2;ratioP2
33162;SDS011;29282;45.656;11.302;2023-10-08T00:01:34;8.40;;;6.15;;
33162;SDS011;29282;45.656;11.302;2023-10-08T00:04:00;8.82;;;5.97;;
33162;SDS011;29282;45.656;11.302;2023-10-08T00:06:29;8.18;;;6.32;;
33162;SDS011;29282;45.656;11.302;2023-10-08T00:08:55;8.00;;;6.38;;
33162;SDS011;29282;45.656;11.302;2023-10-08T00:11:25;9.85;;;6.55;;
33162;SDS011;29282;45.656;11.302;2023-10-08T00:13:54;8.45;;;6.53;;
33162;SDS011;29282;45.656;11.302;2023-10-08T00:16:21;7.80;;;6.03;;
33162;SDS011;29282;45.656;11.302;2023-10-08T00:18:47;10.38;;;6.03;;
33162;SDS011;29282;45.656;11.302;2023-10-08T00:21:16;9.18;;;6.00;;
33162;SDS011;29282;45.656;11.302;2023-10-08T00:23:51;8.20;;;6.00;;
33162;SDS011;29282;45.656;11.302;2023-10-08T00:26:22;9.70;;;6.50;;
33162;SDS011;29282;45.656;11.302;2023-10-08T00:31:24;7.60;;;5.70;;
33162;SDS011;29282;45.656;11.302;2023-10-08T00:33:56;11.27;;;6.32;;
33162;SDS011;29282;45.656;11.302;2023-10-08T00:36:22;7.18;;;5.65;;
33162;SDS011;29282;45.656;11.302;2023-10-08T00:38:49;8.65;;;5.93;;
33162;SDS011;29282;45.656;11.302;2023-10-08T00:41:23;8.38;;;6.25;;
33162;SDS011;29282;45.656;11.302;2023-10-08T00:43:53;8.10;;;5.82;;
33162;SDS011;29282;45.656;11.302;2023-10-08T00:46:21;8.05;;;6.25;;
33162;SDS011;29282;45.656;11.302;2023-10-08T00:48:52;7.63;;;5.50;;
33162;SDS011;29282;45.656;11.302;2023-10-08T00:51:22;8.82;;;6.05;;
33162;SDS011;29282;45.656;11.302;2023-10-08T00:53:49;6.97;;;5.45;;
33162;SDS011;29282;45.656;11.302;2023-10-08T00:56:36;7.55;;;6.13;;
33162;SDS011;29282;45.656;11.302;2023-10-08T00:59:20;8.13;;;5.90;;
33162;SDS011;29282;45.656;11.302;2023-10-08T01:01:47;8.73;;;5.75;;
33162;SDS011;29282;45.656;11.302;2023-10-08T01:04:24;8.50;;;5.90;;
33162;SDS011;29282;45.656;11.302;2023-10-08T01:06:54;7.75;;;5.57;;
33162;SDS011;29282;45.656;11.302;2023-10-08T01:09:26;7.10;;;5.55;;
33162;SDS011;29282;45.656;11.302;2023-10-08T01:12:15;8.95;;;6.13;;
33162;SDS011;29282;45.656;11.302;2023-10-08T01:15:01;8.57;;;6.05;;
33162;SDS011;29282;45.656;11.302;2023-10-08T01:17:42;7.63;;;5.90;;
33162;SDS011;29282;45.656;11.302;2023-10-08T01:20:24;6.85;;;5.18;;
33162;SDS011;29282;45.656;11.302;2023-10-08T01:23:05;8.18;;;5.85;;
33162;SDS011;29282;45.656;11.302;2023-10-08T01:25:38;7.88;;;5.80;;
33162;SDS011;29282;45.656;11.302;2023-10-08T01:28:08;7.15;;;5.53;;
33162;SDS011;29282;45.656;11.302;2023-10-08T01:30:40;8.30;;;6.03;;
33162;SDS011;29282;45.656;11.302;2023-10-08T01:33:07;7.82;;;5.85;;
33162;SDS011;29282;45.656;11.302;2023-10-08T01:35:39;6.30;;;5.57;;
33162;SDS011;29282;45.656;11.302;2023-10-08T01:38:06;6.72;;;5.72;;
33162;SDS011;29282;45.656;11.302;2023-10-08T01:40:33;7.43;;;5.65;;
33162;SDS011;29282;45.656;11.302;2023-10-08T01:42:58;7.70;;;5.93;;
33162;SDS011;29282;45.656;11.302;2023-10-08T01:45:30;7.22;;;5.63;;
33162;SDS011;29282;45.656;11.302;2023-10-08T01:47:57;7.25;;;5.72;;
33162;SDS011;29282;45.656;11.302;2023-10-08T01:50:23;7.20;;;5.63;;
33162;SDS011;29282;45.656;11.302;2023-10-08T01:52:54;7.47;;;5.78;;
33162;SDS011;29282;45.656;11.302;2023-10-08T01:55:20;7.20;;;5.35;;
33162;SDS011;29282;45.656;11.302;2023-10-08T01:57:47;6.80;;;5.78;;
33162;SDS011;29282;45.656;11.302;2023-10-08T02:00:14;7.38;;;5.55;;
33162;SDS011;29282;45.656;11.302;2023-10-08T02:02:52;8.82;;;5.68;;
33162;SDS011;29282;45.656;11.302;2023-10-08T02:05:19;6.05;;;4.95;;
33162;SDS011;29282;45.656;11.302;2023-10-08T02:07:46;7.57;;;6.03;;
33162;SDS011;29282;45.656;11.302;2023-10-08T02:10:16;9.48;;;6.28;;
33162;SDS011;29282;45.656;11.302;2023-10-08T02:12:41;6.95;;;5.22;;
33162;SDS011;29282;45.656;11.302;2023-10-08T02:15:07;8.00;;;5.38;;
33162;SDS011;29282;45.656;11.302;2023-10-08T02:17:34;6.22;;;5.35;;
33162;SDS011;29282;45.656;11.302;2023-10-08T02:19:59;6.82;;;5.80;;
33162;SDS011;29282;45.656;11.302;2023-10-08T02:22:29;8.77;;;6.15;;
33162;SDS011;29282;45.656;11.302;2023-10-08T02:24:55;6.72;;;5.70;;
33162;SDS011;29282;45.656;11.302;2023-10-08T02:27:29;6.05;;;5.45;;
33162;SDS011;29282;45.656;11.302;2023-10-08T02:29:56;7.43;;;5.55;;
33162;SDS011;29282;45.656;11.302;2023-10-08T02:32:21;6.28;;;5.40;;
33162;SDS011;29282;45.656;11.302;2023-10-08T02:34:47;8.40;;;5.95;;
33162;SDS011;29282;45.656;11.302;2023-10-08T02:37:14;6.18;;;5.28;;
33162;SDS011;29282;45.656;11.302;2023-10-08T02:39:40;8.45;;;6.00;;
33162;SDS011;29282;45.656;11.302;2023-10-08T02:42:06;6.38;;;5.28;;
33162;SDS011;29282;45.656;11.302;2023-10-08T02:44:35;6.53;;;5.80;;
33162;SDS011;29282;45.656;11.302;2023-10-08T02:47:07;6.40;;;5.25;;
33162;SDS011;29282;45.656;11.302;2023-10-08T02:49:33;5.85;;;5.07;;
33162;SDS011;29282;45.656;11.302;2023-10-08T02:52:00;6.60;;;5.15;;
33162;SDS011;29282;45.656;11.302;2023-10-08T02:54:29;7.32;;;5.60;;
33162;SDS011;29282;45.656;11.302;2023-10-08T02:57:01;6.68;;;5.30;;
33162;SDS011;29282;45.656;11.302;2023-10-08T02:59:34;5.97;;;5.27;;
33162;SDS011;29282;45.656;11.302;2023-10-08T03:02:10;7.65;;;5.70;;
33162;SDS011;29282;45.656;11.302;2023-10-08T03:04:55;5.63;;;4.85;;
33162;SDS011;29282;45.656;11.302;2023-10-08T03:07:20;5.85;;;5.07;;
33162;SDS011;29282;45.656;11.302;2023-10-08T03:09:50;7.43;;;5.55;;
33162;SDS011;29282;45.656;11.302;2023-10-08T03:12:16;5.82;;;4.80;;
33162;SDS011;29282;45.656;11.302;2023-10-08T03:14:50;6.70;;;5.18;;
33162;SDS011;29282;45.656;11.302;2023-10-08T03:17:29;5.65;;;5.07;;
33162;SDS011;29282;45.656;11.302;2023-10-08T03:20:02;6.65;;;5.30;;
33162;SDS011;29282;45.656;11.302;2023-10-08T03:22:48;6.35;;;5.18;;
33162;SDS011;29282;45.656;11.302;2023-10-08T03:25:14;7.25;;;5.43;;
33162;SDS011;29282;45.656;11.302;2023-10-08T03:27:45;6.32;;;5.45;;
33162;SDS011;29282;45.656;11.302;2023-10-08T03:30:13;6.78;;;5.05;;
33162;SDS011;29282;45.656;11.302;2023-10-08T03:32:44;6.05;;;5.00;;
33162;SDS011;29282;45.656;11.302;2023-10-08T03:35:10;7.40;;;5.78;;
33162;SDS011;29282;45.656;11.302;2023-10-08T03:37:37;7.43;;;5.07;;
33162;SDS011;29282;45.656;11.302;2023-10-08T03:40:07;5.55;;;4.93;;
33162;SDS011;29282;45.656;11.302;2023-10-08T03:42:56;5.68;;;4.88;;
33162;SDS011;29282;45.656;11.302;2023-10-08T03:45:22;6.20;;;5.13;;
33162;SDS011;29282;45.656;11.302;2023-10-08T03:48:06;5.90;;;4.80;;
33162;SDS011;29282;45.656;11.302;2023-10-08T03:50:35;6.03;;;4.57;;
33162;SDS011;29282;45.656;11.302;2023-10-08T03:53:08;5.97;;;5.05;;
33162;SDS011;29282;45.656;11.302;2023-10-08T03:55:37;5.90;;;5.07;;
33162;SDS011;29282;45.656;11.302;2023-10-08T03:58:09;5.10;;;4.60;;
33162;SDS011;29282;45.656;11.302;2023-10-08T04:00:53;6.55;;;5.05;;
33162;SDS011;29282;45.656;11.302;2023-10-08T04:03:33;5.75;;;5.15;;
33162;SDS011;29282;45.656;11.302;2023-10-08T04:06:28;6.68;;;5.07;;
33162;SDS011;29282;45.656;11.302;2023-10-08T04:09:04;7.13;;;5.13;;
33162;SDS011;29282;45.656;11.302;2023-10-08T04:11:33;7.15;;;5.18;;
33162;SDS011;29282;45.656;11.302;2023-10-08T04:14:07;5.85;;;4.88;;
33162;SDS011;29282;45.656;11.302;2023-10-08T04:16:32;6.47;;;4.78;;
33162;SDS011;29282;45.656;11.302;2023-10-08T04:19:02;6.20;;;4.97;;
33162;SDS011;29282;45.656;11.302;2023-10-08T04:21:28;5.82;;;4.80;;
33162;SDS011;29282;45.656;11.302;2023-10-08T04:23:55;6.97;;;5.30;;
33162;SDS011;29282;45.656;11.302;2023-10-08T04:26:22;5.85;;;4.90;;
33162;SDS011;29282;45.656;11.302;2023-10-08T04:28:51;5.68;;;4.80;;
33162;SDS011;29282;45.656;11.302;2023-10-08T04:31:38;7.47;;;5.22;;
33162;SDS011;29282;45.656;11.302;2023-10-08T04:34:05;5.63;;;4.80;;
33162;SDS011;29282;45.656;11.302;2023-10-08T04:36:47;5.35;;;4.68;;
33162;SDS011;29282;45.656;11.302;2023-10-08T04:39:19;6.20;;;4.55;;
33162;SDS011;29282;45.656;11.302;2023-10-08T04:41:56;6.93;;;5.20;;
33162;SDS011;29282;45.656;11.302;2023-10-08T04:44:25;5.65;;;4.85;;
33162;SDS011;29282;45.656;11.302;2023-10-08T04:46:51;9.85;;;4.90;;
33162;SDS011;29282;45.656;11.302;2023-10-08T04:49:18;5.40;;;4.72;;
33162;SDS011;29282;45.656;11.302;2023-10-08T04:51:47;4.97;;;4.40;;
33162;SDS011;29282;45.656;11.302;2023-10-08T04:54:14;5.55;;;4.78;;
33162;SDS011;29282;45.656;11.302;2023-10-08T04:56:43;5.85;;;5.03;;
33162;SDS011;29282;45.656;11.302;2023-10-08T04:59:09;5.75;;;4.78;;
33162;SDS011;29282;45.656;11.302;2023-10-08T05:01:36;5.88;;;4.75;;
33162;SDS011;29282;45.656;11.302;2023-10-08T05:04:12;6.13;;;4.82;;
33162;SDS011;29282;45.656;11.302;2023-10-08T05:06:51;5.60;;;4.32;;
33162;SDS011;29282;45.656;11.302;2023-10-08T05:12:04;5.60;;;4.10;;
33162;SDS011;29282;45.656;11.302;2023-10-08T05:14:35;6.65;;;4.70;;
33162;SDS011;29282;45.656;11.302;2023-10-08T05:17:10;5.88;;;4.53;;
33162;SDS011;29282;45.656;11.302;2023-10-08T05:19:40;7.53;;;4.82;;
33162;SDS011;29282;45.656;11.302;2023-10-08T05:22:09;5.35;;;4.68;;
33162;SDS011;29282;45.656;11.302;2023-10-08T05:24:54;6.85;;;4.95;;
33162;SDS011;29282;45.656;11.302;2023-10-08T05:27:37;6.97;;;4.82;;
33162;SDS011;29282;45.656;11.302;2023-10-08T05:30:13;6.13;;;4.22;;
33162;SDS011;29282;45.656;11.302;2023-10-08T05:32:43;5.95;;;4.50;;
33162;SDS011;29282;45.656;11.302;2023-10-08T05:35:27;6.10;;;4.85;;
33162;SDS011;29282;45.656;11.302;2023-10-08T05:38:14;4.40;;;3.97;;
33162;SDS011;29282;45.656;11.302;2023-10-08T05:40:47;6.38;;;4.95;;
33162;SDS011;29282;45.656;11.302;2023-10-08T05:43:32;5.13;;;4.63;;
33162;SDS011;29282;45.656;11.302;2023-10-08T05:46:05;5.55;;;4.57;;
33162;SDS011;29282;45.656;11.302;2023-10-08T05:48:46;5.53;;;4.50;;
33162;SDS011;29282;45.656;11.302;2023-10-08T05:51:32;4.75;;;4.30;;
33162;SDS011;29282;45.656;11.302;2023-10-08T05:54:15;5.05;;;4.13;;
33162;SDS011;29282;45.656;11.302;2023-10-08T05:59:40;5.72;;;4.28;;
33162;SDS011;29282;45.656;11.302;2023-10-08T06:02:26;5.93;;;4.57;;
33162;SDS011;29282;45.656;11.302;2023-10-08T06:04:58;5.20;;;4.00;;
33162;SDS011;29282;45.656;11.302;2023-10-08T06:07:52;5.43;;;4.30;;
33162;SDS011;29282;45.656;11.302;2023-10-08T06:10:19;5.45;;;4.53;;
33162;SDS011;29282;45.656;11.302;2023-10-08T06:15:49;4.75;;;4.20;;
33162;SDS011;29282;45.656;11.302;2023-10-08T06:18:25;6.60;;;4.70;;
33162;SDS011;29282;45.656;11.302;2023-10-08T06:20:55;5.15;;;4.40;;
33162;SDS011;29282;45.656;11.302;2023-10-08T06:23:24;5.88;;;4.38;;
33162;SDS011;29282;45.656;11.302;2023-10-08T06:25:51;4.50;;;4.05;;
33162;SDS011;29282;45.656;11.302;2023-10-08T06:28:23;6.38;;;4.05;;
33162;SDS011;29282;45.656;11.302;2023-10-08T06:30:54;8.35;;;4.57;;
33162;SDS011;29282;45.656;11.302;2023-10-08T06:33:21;7.43;;;4.25;;
33162;SDS011;29282;45.656;11.302;2023-10-08T06:35:47;5.68;;;4.20;;
33162;SDS011;29282;45.656;11.302;2023-10-08T06:38:30;6.32;;;4.07;;
33162;SDS011;29282;45.656;11.302;2023-10-08T06:40:59;8.88;;;4.90;;
33162;SDS011;29282;45.656;11.302;2023-10-08T06:43:30;7.72;;;4.63;;
33162;SDS011;29282;45.656;11.302;2023-10-08T06:45:56;7.47;;;4.32;;
33162;SDS011;29282;45.656;11.302;2023-10-08T06:48:23;6.10;;;3.97;;
33162;SDS011;29282;45.656;11.302;2023-10-08T06:50:50;7.72;;;3.83;;
33162;SDS011;29282;45.656;11.302;2023-10-08T06:53:21;4.63;;;3.88;;
33162;SDS011;29282;45.656;11.302;2023-10-08T06:55:48;5.75;;;4.40;;
33162;SDS011;29282;45.656;11.302;2023-10-08T06:58:21;5.85;;;3.80;;
33162;SDS011;29282;45.656;11.302;2023-10-08T07:00:48;6.32;;;3.80;;
33162;SDS011;29282;45.656;11.302;2023-10-08T07:03:14;8.90;;;4.55;;
33162;SDS011;29282;45.656;11.302;2023-10-08T07:05:50;6.00;;;3.88;;
33162;SDS011;29282;45.656;11.302;2023-10-08T07:08:23;5.10;;;4.20;;
33162;SDS011;29282;45.656;11.302;2023-10-08T07:10:50;5.00;;;4.20;;
33162;SDS011;29282;45.656;11.302;2023-10-08T07:13:16;6.20;;;4.18;;
33162;SDS011;29282;45.656;11.302;2023-10-08T07:15:49;4.82;;;3.90;;
33162;SDS011;29282;45.656;11.302;2023-10-08T07:18:15;6.72;;;4.35;;
33162;SDS011;29282;45.656;11.302;2023-10-08T07:20:50;5.05;;;4.03;;
33162;SDS011;29282;45.656;11.302;2023-10-08T07:23:25;4.68;;;4.05;;
33162;SDS011;29282;45.656;11.302;2023-10-08T07:25:53;7.43;;;4.20;;
33162;SDS011;29282;45.656;11.302;2023-10-08T07:28:25;6.15;;;3.97;;
33162;SDS011;29282;45.656;11.302;2023-10-08T07:30:51;6.55;;;4.00;;
33162;SDS011;29282;45.656;11.302;2023-10-08T07:33:17;6.60;;;3.90;;
33162;SDS011;29282;45.656;11.302;2023-10-08T07:35:47;5.78;;;3.95;;
33162;SDS011;29282;45.656;11.302;2023-10-08T07:38:25;4.78;;;3.75;;
33162;SDS011;29282;45.656;11.302;2023-10-08T07:40:52;4.72;;;3.50;;
33162;SDS011;29282;45.656;11.302;2023-10-08T07:43:20;5.47;;;3.92;;
33162;SDS011;29282;45.656;11.302;2023-10-08T07:45:46;4.28;;;3.45;;
33162;SDS011;29282;45.656;11.302;2023-10-08T07:48:12;8.88;;;3.70;;
33162;SDS011;29282;45.656;11.302;2023-10-08T07:50:42;5.05;;;3.85;;
33162;SDS011;29282;45.656;11.302;2023-10-08T07:53:15;7.05;;;3.90;;
33162;SDS011;29282;45.656;11.302;2023-10-08T07:55:47;4.97;;;3.88;;
33162;SDS011;29282;45.656;11.302;2023-10-08T07:58:14;4.80;;;3.33;;
33162;SDS011;29282;45.656;11.302;2023-10-08T08:00:40;5.15;;;4.05;;
33162;SDS011;29282;45.656;11.302;2023-10-08T08:03:06;6.15;;;3.63;;
33162;SDS011;29282;45.656;11.302;2023-10-08T08:05:32;4.22;;;3.42;;
33162;SDS011;29282;45.656;11.302;2023-10-08T08:08:02;4.60;;;3.50;;
33162;SDS011;29282;45.656;11.302;2023-10-08T08:10:31;6.82;;;3.85;;
33162;SDS011;29282;45.656;11.302;2023-10-08T08:13:04;8.25;;;3.70;;
33162;SDS011;29282;45.656;11.302;2023-10-08T08:15:32;6.03;;;3.58;;
33162;SDS011;29282;45.656;11.302;2023-10-08T08:17:59;6.00;;;3.53;;
33162;SDS011;29282;45.656;11.302;2023-10-08T08:20:25;5.20;;;3.60;;
33162;SDS011;29282;45.656;11.302;2023-10-08T08:23:03;5.78;;;3.72;;
33162;SDS011;29282;45.656;11.302;2023-10-08T08:25:41;5.45;;;3.80;;
33162;SDS011;29282;45.656;11.302;2023-10-08T08:28:25;5.70;;;3.80;;
33162;SDS011;29282;45.656;11.302;2023-10-08T08:30:54;8.55;;;4.00;;
33162;SDS011;29282;45.656;11.302;2023-10-08T08:33:20;5.38;;;3.58;;
33162;SDS011;29282;45.656;11.302;2023-10-08T08:35:59;7.55;;;3.83;;
33162;SDS011;29282;45.656;11.302;2023-10-08T08:38:26;9.32;;;4.28;;
33162;SDS011;29282;45.656;11.302;2023-10-08T08:41:02;8.35;;;3.90;;
33162;SDS011;29282;45.656;11.302;2023-10-08T08:43:37;6.60;;;3.88;;
33162;SDS011;29282;45.656;11.302;2023-10-08T08:46:09;10.95;;;4.43;;
33162;SDS011;29282;45.656;11.302;2023-10-08T08:48:38;6.20;;;4.13;;
33162;SDS011;29282;45.656;11.302;2023-10-08T08:51:06;6.82;;;4.03;;
33162;SDS011;29282;45.656;11.302;2023-10-08T08:53:32;5.25;;;4.18;;
33162;SDS011;29282;45.656;11.302;2023-10-08T08:56:01;7.20;;;4.10;;
33162;SDS011;29282;45.656;11.302;2023-10-08T08:58:33;10.95;;;4.68;;
33162;SDS011;29282;45.656;11.302;2023-10-08T09:00:59;6.32;;;3.97;;
33162;SDS011;29282;45.656;11.302;2023-10-08T09:03:25;11.48;;;4.28;;
33162;SDS011;29282;45.656;11.302;2023-10-08T09:05:58;7.55;;;4.10;;
33162;SDS011;29282;45.656;11.302;2023-10-08T09:08:28;8.27;;;3.95;;
33162;SDS011;29282;45.656;11.302;2023-10-08T09:10:58;8.80;;;4.53;;
33162;SDS011;29282;45.656;11.302;2023-10-08T09:13:26;8.25;;;4.60;;
33162;SDS011;29282;45.656;11.302;2023-10-08T09:16:15;7.25;;;4.03;;
33162;SDS011;29282;45.656;11.302;2023-10-08T09:18:58;11.23;;;4.30;;
33162;SDS011;29282;45.656;11.302;2023-10-08T09:21:23;12.35;;;4.40;;
33162;SDS011;29282;45.656;11.302;2023-10-08T09:23:49;8.43;;;4.22;;
33162;SDS011;29282;45.656;11.302;2023-10-08T09:26:18;6.15;;;4.30;;
33162;SDS011;29282;45.656;11.302;2023-10-08T09:28:48;7.10;;;3.70;;
33162;SDS011;29282;45.656;11.302;2023-10-08T09:31:14;11.68;;;4.35;;
33162;SDS011;29282;45.656;11.302;2023-10-08T09:33:42;8.50;;;4.68;;
33162;SDS011;29282;45.656;11.302;2023-10-08T09:36:09;6.75;;;3.85;;
33162;SDS011;29282;45.656;11.302;2023-10-08T09:38:43;7.20;;;3.80;;
33162;SDS011;29282;45.656;11.302;2023-10-08T09:41:10;6.32;;;4.03;;
33162;SDS011;29282;45.656;11.302;2023-10-08T09:43:37;10.50;;;4.18;;
33162;SDS011;29282;45.656;11.302;2023-10-08T09:48:37;8.43;;;4.03;;
33162;SDS011;29282;45.656;11.302;2023-10-08T09:51:06;7.82;;;3.75;;
33162;SDS011;29282;45.656;11.302;2023-10-08T09:54:11;10.27;;;4.38;;
33162;SDS011;29282;45.656;11.302;2023-10-08T09:56:35;7.80;;;4.28;;
33162;SDS011;29282;45.656;11.302;2023-10-08T09:59:01;9.68;;;4.40;;
33162;SDS011;29282;45.656;11.302;2023-10-08T10:01:28;6.85;;;4.35;;
33162;SDS011;29282;45.656;11.302;2023-10-08T10:03:57;5.32;;;3.47;;
33162;SDS011;29282;45.656;11.302;2023-10-08T10:06:25;6.80;;;3.97;;
33162;SDS011;29282;45.656;11.302;2023-10-08T10:08:52;8.63;;;4.05;;
33162;SDS011;29282;45.656;11.302;2023-10-08T10:11:25;7.50;;;4.15;;
33162;SDS011;29282;45.656;11.302;2023-10-08T10:13:58;6.75;;;3.80;;
33162;SDS011;29282;45.656;11.302;2023-10-08T10:16:25;7.80;;;3.80;;
33162;SDS011;29282;45.656;11.302;2023-10-08T10:18:54;8.48;;;3.83;;
33162;SDS011;29282;45.656;11.302;2023-10-08T10:21:25;6.13;;;3.83;;
33162;SDS011;29282;45.656;11.302;2023-10-08T10:23:56;7.75;;;3.75;;
33162;SDS011;29282;45.656;11.302;2023-10-08T10:31:42;8.20;;;4.35;;
33162;SDS011;29282;45.656;11.302;2023-10-08T10:34:18;6.60;;;3.92;;
33162;SDS011;29282;45.656;11.302;2023-10-08T10:36:51;9.65;;;4.15;;
33162;SDS011;29282;45.656;11.302;2023-10-08T10:39:22;7.35;;;4.32;;
33162;SDS011;29282;45.656;11.302;2023-10-08T10:41:51;9.45;;;3.97;;
33162;SDS011;29282;45.656;11.302;2023-10-08T10:44:48;7.38;;;3.92;;
33162;SDS011;29282;45.656;11.302;2023-10-08T10:47:18;6.68;;;4.18;;
33162;SDS011;29282;45.656;11.302;2023-10-08T10:49:50;7.75;;;3.63;;
33162;SDS011;29282;45.656;11.302;2023-10-08T10:52:29;7.43;;;3.90;;
33162;SDS011;29282;45.656;11.302;2023-10-08T10:57:44;6.38;;;3.63;;
33162;SDS011;29282;45.656;11.302;2023-10-08T11:00:19;8.20;;;3.80;;
33162;SDS011;29282;45.656;11.302;2023-10-08T11:02:58;6.32;;;3.80;;
33162;SDS011;29282;45.656;11.302;2023-10-08T11:05:28;6.28;;;4.03;;
33162;SDS011;29282;45.656;11.302;2023-10-08T11:07:56;5.40;;;3.83;;
33162;SDS011;29282;45.656;11.302;2023-10-08T11:10:33;7.63;;;4.32;;
33162;SDS011;29282;45.656;11.302;2023-10-08T11:13:00;6.85;;;4.10;;
33162;SDS011;29282;45.656;11.302;2023-10-08T11:15:29;6.28;;;3.75;;
33162;SDS011;29282;45.656;11.302;2023-10-08T11:18:09;8.02;;;4.05;;
33162;SDS011;29282;45.656;11.302;2023-10-08T11:20:35;10.57;;;4.20;;
33162;SDS011;29282;45.656;11.302;2023-10-08T11:26:06;6.03;;;4.03;;
33162;SDS011;29282;45.656;11.302;2023-10-08T11:28:37;8.05;;;4.30;;
33162;SDS011;29282;45.656;11.302;2023-10-08T11:31:15;5.40;;;3.90;;
33162;SDS011;29282;45.656;11.302;2023-10-08T11:33:46;5.80;;;3.90;;
33162;SDS011;29282;45.656;11.302;2023-10-08T11:36:19;10.90;;;4.40;;
33162;SDS011;29282;45.656;11.302;2023-10-08T11:38:55;8.07;;;4.43;;
33162;SDS011;29282;45.656;11.302;2023-10-08T11:41:28;6.80;;;4.13;;
33162;SDS011;29282;45.656;11.302;2023-10-08T11:44:07;6.68;;;4.15;;
33162;SDS011;29282;45.656;11.302;2023-10-08T11:46:38;6.30;;;4.75;;
33162;SDS011;29282;45.656;11.302;2023-10-08T11:49:07;6.95;;;4.50;;
33162;SDS011;29282;45.656;11.302;2023-10-08T11:51:42;6.65;;;4.60;;
33162;SDS011;29282;45.656;11.302;2023-10-08T11:54:08;7.13;;;4.68;;
33162;SDS011;29282;45.656;11.302;2023-10-08T11:56:36;8.00;;;4.30;;
33162;SDS011;29282;45.656;11.302;2023-10-08T11:59:03;18.52;;;4.80;;
33162;SDS011;29282;45.656;11.302;2023-10-08T12:01:34;14.43;;;5.35;;
33162;SDS011;29282;45.656;11.302;2023-10-08T12:04:07;26.73;;;5.50;;
33162;SDS011;29282;45.656;11.302;2023-10-08T12:06:38;25.42;;;5.05;;
33162;SDS011;29282;45.656;11.302;2023-10-08T12:09:12;33.58;;;5.75;;
33162;SDS011;29282;45.656;11.302;2023-10-08T12:11:41;23.63;;;5.70;;
33162;SDS011;29282;45.656;11.302;2023-10-08T12:14:07;26.90;;;5.82;;
33162;SDS011;29282;45.656;11.302;2023-10-08T12:16:33;19.13;;;5.55;;
33162;SDS011;29282;45.656;11.302;2023-10-08T12:19:04;26.38;;;6.15;;
33162;SDS011;29282;45.656;11.302;2023-10-08T12:21:40;21.15;;;5.80;;
33162;SDS011;29282;45.656;11.302;2023-10-08T12:24:06;15.80;;;5.97;;
33162;SDS011;29282;45.656;11.302;2023-10-08T12:26:35;21.00;;;6.10;;
33162;SDS011;29282;45.656;11.302;2023-10-08T12:29:01;19.83;;;6.22;;
33162;SDS011;29282;45.656;11.302;2023-10-08T12:31:27;18.70;;;5.45;;
33162;SDS011;29282;45.656;11.302;2023-10-08T12:33:54;20.45;;;5.68;;
33162;SDS011;29282;45.656;11.302;2023-10-08T12:36:25;21.55;;;6.30;;
33162;SDS011;29282;45.656;11.302;2023-10-08T12:38:58;13.55;;;5.90;;
33162;SDS011;29282;45.656;11.302;2023-10-08T12:41:24;20.80;;;5.88;;
33162;SDS011;29282;45.656;11.302;2023-10-08T12:43:53;16.00;;;5.90;;
33162;SDS011;29282;45.656;11.302;2023-10-08T12:46:19;27.27;;;5.82;;
33162;SDS011;29282;45.656;11.302;2023-10-08T12:48:49;23.25;;;6.00;;
33162;SDS011;29282;45.656;11.302;2023-10-08T12:51:22;19.40;;;7.07;;
33162;SDS011;29282;45.656;11.302;2023-10-08T12:53:50;17.50;;;5.82;;
33162;SDS011;29282;45.656;11.302;2023-10-08T12:56:23;16.98;;;6.00;;
33162;SDS011;29282;45.656;11.302;2023-10-08T12:58:56;20.50;;;6.00;;
33162;SDS011;29282;45.656;11.302;2023-10-08T13:01:23;16.48;;;6.05;;
33162;SDS011;29282;45.656;11.302;2023-10-08T13:03:49;14.20;;;5.82;;
33162;SDS011;29282;45.656;11.302;2023-10-08T13:06:15;16.30;;;6.07;;
33162;SDS011;29282;45.656;11.302;2023-10-08T13:08:53;19.48;;;5.85;;
33162;SDS011;29282;45.656;11.302;2023-10-08T13:11:23;16.08;;;5.32;;
33162;SDS011;29282;45.656;11.302;2023-10-08T13:13:51;14.73;;;5.32;;
33162;SDS011;29282;45.656;11.302;2023-10-08T13:16:19;13.98;;;5.50;;
33162;SDS011;29282;45.656;11.302;2023-10-08T13:18:46;13.55;;;5.03;;
33162;SDS011;29282;45.656;11.302;2023-10-08T13:21:12;13.75;;;5.53;;
33162;SDS011;29282;45.656;11.302;2023-10-08T13:23:38;9.57;;;5.03;;
33162;SDS011;29282;45.656;11.302;2023-10-08T13:26:04;14.57;;;5.60;;
33162;SDS011;29282;45.656;11.302;2023-10-08T13:28:35;12.77;;;5.30;;
33162;SDS011;29282;45.656;11.302;2023-10-08T13:31:04;9.00;;;5.40;;
33162;SDS011;29282;45.656;11.302;2023-10-08T13:33:37;11.70;;;5.40;;
33162;SDS011;29282;45.656;11.302;2023-10-08T13:36:11;13.38;;;5.32;;
33162;SDS011;29282;45.656;11.302;2023-10-08T13:38:38;14.43;;;5.32;;
33162;SDS011;29282;45.656;11.302;2023-10-08T13:41:06;10.70;;;5.20;;
33162;SDS011;29282;45.656;11.302;2023-10-08T13:43:46;12.90;;;5.18;;
33162;SDS011;29282;45.656;11.302;2023-10-08T13:46:15;11.27;;;5.10;;
33162;SDS011;29282;45.656;11.302;2023-10-08T13:48:43;11.73;;;4.78;;
33162;SDS011;29282;45.656;11.302;2023-10-08T13:51:15;11.23;;;5.32;;
33162;SDS011;29282;45.656;11.302;2023-10-08T13:53:52;10.95;;;4.88;;
33162;SDS011;29282;45.656;11.302;2023-10-08T13:56:24;11.88;;;5.75;;
33162;SDS011;29282;45.656;11.302;2023-10-08T13:58:54;9.23;;;5.10;;
33162;SDS011;29282;45.656;11.302;2023-10-08T14:01:37;11.32;;;5.07;;
33162;SDS011;29282;45.656;11.302;2023-10-08T14:04:06;18.73;;;5.72;;
33162;SDS011;29282;45.656;11.302;2023-10-08T14:06:36;9.18;;;4.68;;
33162;SDS011;29282;45.656;11.302;2023-10-08T14:09:03;10.60;;;5.75;;
33162;SDS011;29282;45.656;11.302;2023-10-08T14:14:02;9.63;;;5.10;;
33162;SDS011;29282;45.656;11.302;2023-10-08T14:16:36;5.65;;;4.50;;
33162;SDS011;29282;45.656;11.302;2023-10-08T14:19:02;12.23;;;5.28;;
33162;SDS011;29282;45.656;11.302;2023-10-08T14:21:30;9.52;;;4.82;;
33162;SDS011;29282;45.656;11.302;2023-10-08T14:23:58;9.90;;;5.40;;
33162;SDS011;29282;45.656;11.302;2023-10-08T14:26:28;8.07;;;4.53;;
33162;SDS011;29282;45.656;11.302;2023-10-08T14:29:00;9.13;;;4.65;;
33162;SDS011;29282;45.656;11.302;2023-10-08T14:31:33;10.73;;;5.07;;
33162;SDS011;29282;45.656;11.302;2023-10-08T14:34:03;9.13;;;5.03;;
33162;SDS011;29282;45.656;11.302;2023-10-08T14:36:59;10.85;;;4.85;;
33162;SDS011;29282;45.656;11.302;2023-10-08T14:39:43;9.95;;;4.95;;
33162;SDS011;29282;45.656;11.302;2023-10-08T14:42:27;9.07;;;5.07;;
33162;SDS011;29282;45.656;11.302;2023-10-08T14:45:11;8.90;;;4.83;;
33162;SDS011;29282;45.656;11.302;2023-10-08T14:47:38;10.60;;;4.75;;
33162;SDS011;29282;45.656;11.302;2023-10-08T14:50:06;10.55;;;5.10;;
33162;SDS011;29282;45.656;11.302;2023-10-08T14:52:41;10.00;;;5.15;;
33162;SDS011;29282;45.656;11.302;2023-10-08T14:55:08;9.65;;;5.25;;
33162;SDS011;29282;45.656;11.302;2023-10-08T14:57:38;8.48;;;4.80;;
33162;SDS011;29282;45.656;11.302;2023-10-08T15:00:06;8.43;;;5.28;;
33162;SDS011;29282;45.656;11.302;2023-10-08T15:02:32;7.93;;;4.90;;
33162;SDS011;29282;45.656;11.302;2023-10-08T15:04:58;11.30;;;4.93;;
33162;SDS011;29282;45.656;11.302;2023-10-08T15:07:26;7.10;;;4.97;;
33162;SDS011;29282;45.656;11.302;2023-10-08T15:09:55;8.00;;;5.60;;
33162;SDS011;29282;45.656;11.302;2023-10-08T15:12:23;9.27;;;5.35;;
33162;SDS011;29282;45.656;11.302;2023-10-08T15:14:51;7.50;;;4.88;;
33162;SDS011;29282;45.656;11.302;2023-10-08T15:17:17;10.60;;;4.75;;
33162;SDS011;29282;45.656;11.302;2023-10-08T15:19:42;11.73;;;4.95;;
33162;SDS011;29282;45.656;11.302;2023-10-08T15:22:08;14.43;;;5.43;;